Time;durP1;ratioP1;P1;durP2;ratioP2;P2;SDS_P1;SDS_P2;PMS_P1;PMS_P2;Temp;Humidity;BMP_temperature;BMP_pressure;BME280_temperature;BME280_humidity;BME280_pressure;Samples;Min_cycle;Max_cycle;Signal;HPM_P1;HPM_P2
2021/07/20 17:41:12;;;;;;;9.43;7.30;;;28.40;50.60;;;;;;5104041;27;20709;-60
2021/07/20 17:43:42;;;;;;;10.20;7.53;;;27.80;50.50;;;;;;5102893;28;20234;-56
2021/07/20 17:46:09;;;;;;;10.98;6.90;;;27.40;51.20;;;;;;5101612;28;20201;-58
2021/07/20 17:48:37;;;;;;;11.30;7.25;;;27.00;52.00;;;;;;5101019;28;20673;-60
2021/07/20 17:51:04;;;;;;;10.30;6.95;;;26.80;53.00;;;;;;5104288;28;20205;-59
2021/07/20 17:53:34;;;;;;;10.07;6.45;;;26.60;53.30;;;;;;5106580;28;20245;-57
2021/07/20 17:56:04;;;;;;;10.73;6.85;;;26.40;54.00;;;;;;5100298;28;20640;-57
2021/07/20 17:58:32;;;;;;;10.50;6.72;;;26.30;54.40;;;;;;5102101;28;20733;-56
2021/07/20 18:00:59;;;;;;;9.70;6.78;;;26.10;54.80;;;;;;5104710;28;20549;-58
2021/07/20 18:03:26;;;;;;;13.50;6.95;;;26.00;54.90;;;;;;5102134;28;20205;-56
2021/07/20 18:35:42;;;;;;;12.80;7.38;;;27.50;51.50;;;;;;5033088;27;1908825;-67
2021/07/20 18:38:09;;;;;;;11.10;7.95;;;27.30;52.60;;;;;;5078123;28;20209;-70
2021/07/20 18:40:36;;;;;;;14.23;7.57;;;27.20;52.40;;;;;;5077653;28;20200;-70
2021/07/20 18:43:03;;;;;;;12.18;7.25;;;27.10;52.30;;;;;;5078025;28;20201;-68
2021/07/20 18:45:30;;;;;;;12.98;8.18;;;27.00;52.20;;;;;;5075174;28;20200;-71
2021/07/20 18:47:57;;;;;;;12.25;7.32;;;26.90;52.20;;;;;;5076040;28;20205;-70
2021/07/20 18:50:24;;;;;;;12.13;7.53;;;26.80;52.20;;;;;;5076739;28;20212;-70
2021/07/20 18:52:52;;;;;;;12.80;7.65;;;26.70;52.20;;;;;;5076046;28;20671;-70
2021/07/20 18:55:19;;;;;;;13.27;7.25;;;26.70;52.30;;;;;;5077351;28;20602;-71
2021/07/20 18:57:46;;;;;;;12.73;7.97;;;26.60;52.40;;;;;;5077497;28;20275;-71
2021/07/20 19:00:14;;;;;;;10.85;7.68;;;26.60;52.50;;;;;;5075846;28;20202;-70
2021/07/20 19:02:47;;;;;;;13.10;8.27;;;26.60;52.50;;;;;;5069348;28;20572;-72
2021/07/20 19:05:15;;;;;;;12.70;7.85;;;26.50;52.50;;;;;;5075946;28;20607;-70
2021/07/20 19:07:42;;;;;;;12.45;7.43;;;26.40;52.70;;;;;;5071699;28;20678;-70
2021/07/20 19:10:11;;;;;;;15.88;7.90;;;26.40;52.90;;;;;;5080981;28;20216;-70
2021/07/20 19:12:38;;;;;;;11.65;7.50;;;26.40;53.00;;;;;;5077450;28;20662;-71
2021/07/20 19:15:06;;;;;;;12.77;7.40;;;26.40;53.10;;;;;;5079103;28;20634;-72
2021/07/20 19:17:33;;;;;;;12.05;7.45;;;26.30;53.20;;;;;;5079034;28;20548;-69
2021/07/20 19:20:00;;;;;;;11.82;7.45;;;26.30;53.30;;;;;;5082013;28;20202;-73
2021/07/20 19:22:31;;;;;;;15.38;7.72;;;26.30;53.40;;;;;;5079913;28;20202;-68
2021/07/20 19:25:02;;;;;;;13.02;7.70;;;26.30;53.50;;;;;;5079768;28;20199;-72
2021/07/20 19:27:31;;;;;;;13.25;8.35;;;26.20;53.50;;;;;;5063933;28;20208;-73
2021/07/20 19:30:01;;;;;;;14.32;7.80;;;26.20;53.70;;;;;;5077492;28;20256;-73
2021/07/20 19:32:28;;;;;;;15.85;7.90;;;26.20;53.90;;;;;;5080142;28;20205;-72
2021/07/20 19:34:54;;;;;;;12.55;8.00;;;26.10;54.10;;;;;;5077340;28;20229;-72
2021/07/20 19:37:23;;;;;;;12.70;8.35;;;26.10;54.40;;;;;;5078837;28;20224;-74
2021/07/20 19:39:50;;;;;;;15.10;7.97;;;26.00;54.60;;;;;;5077655;28;20207;-65
2021/07/20 19:42:17;;;;;;;18.98;9.18;;;25.90;54.80;;;;;;5079802;28;20212;-66
2021/07/20 19:44:46;;;;;;;15.32;8.65;;;25.90;55.00;;;;;;5076455;28;20224;-64
2021/07/20 19:47:13;;;;;;;16.10;8.65;;;25.90;55.20;;;;;;5068384;28;20256;-65
2021/07/20 19:49:40;;;;;;;15.82;8.27;;;25.80;55.30;;;;;;5065205;28;20217;-65
2021/07/20 19:52:07;;;;;;;15.20;8.55;;;25.80;55.50;;;;;;5065542;28;20213;-66
2021/07/20 19:54:34;;;;;;;15.50;8.75;;;25.80;55.70;;;;;;5066436;28;20222;-64
2021/07/20 19:57:04;;;;;;;16.83;8.85;;;25.70;55.80;;;;;;5065962;28;20202;-64
2021/07/20 19:59:33;;;;;;;13.50;8.32;;;25.80;56.10;;;;;;5063965;28;20212;-63
2021/07/20 20:02:02;;;;;;;14.57;8.88;;;25.70;56.30;;;;;;5063567;28;20593;-68
2021/07/20 20:04:29;;;;;;;16.75;9.02;;;25.70;56.70;;;;;;5061862;28;20649;-64
2021/07/20 20:06:57;;;;;;;15.30;9.45;;;25.60;57.00;;;;;;5062526;28;20199;-64
2021/07/20 20:09:25;;;;;;;19.40;9.48;;;25.60;57.40;;;;;;5065703;28;20282;-65
2021/07/20 20:11:52;;;;;;;20.38;9.18;;;25.50;57.70;;;;;;5051102;28;20229;-66
2021/07/20 20:14:19;;;;;;;12.75;8.98;;;25.40;58.00;;;;;;5065658;28;21011;-64
2021/07/20 20:16:46;;;;;;;16.42;9.55;;;25.40;58.30;;;;;;5050691;28;20220;-64
2021/07/20 20:19:14;;;;;;;15.68;9.52;;;25.30;58.50;;;;;;5064785;28;20260;-66
2021/07/20 20:21:41;;;;;;;12.52;8.60;;;25.30;58.70;;;;;;5068355;28;20598;-66
2021/07/20 20:24:08;;;;;;;14.77;9.48;;;25.20;58.80;;;;;;5065464;28;20591;-64
2021/07/20 20:26:35;;;;;;;16.13;9.32;;;25.20;58.90;;;;;;5066783;28;20206;-67
2021/07/20 20:29:02;;;;;;;16.67;9.63;;;25.10;59.10;;;;;;5065573;28;20194;-64
2021/07/20 20:31:30;;;;;;;15.15;9.35;;;25.10;59.40;;;;;;5061195;28;20211;-62
2021/07/20 20:33:56;;;;;;;14.70;8.95;;;25.10;59.80;;;;;;5063301;28;20233;-65
2021/07/20 20:36:25;;;;;;;15.75;8.57;;;25.00;60.00;;;;;;5047162;28;20209;-63
2021/07/20 20:38:52;;;;;;;15.75;9.38;;;25.00;60.20;;;;;;5061577;28;20778;-63
2021/07/20 20:41:19;;;;;;;18.85;9.55;;;25.00;60.30;;;;;;5062713;28;20201;-64
2021/07/20 20:43:46;;;;;;;18.27;9.38;;;24.90;60.50;;;;;;5064078;28;20194;-63
2021/07/20 20:46:13;;;;;;;18.17;9.20;;;24.90;60.90;;;;;;5064871;28;20688;-65
2021/07/20 20:48:41;;;;;;;15.27;9.40;;;24.80;61.10;;;;;;5062568;28;20217;-65
2021/07/20 20:51:09;;;;;;;16.50;9.25;;;24.80;61.40;;;;;;5062831;28;20230;-67
2021/07/20 20:53:37;;;;;;;17.63;9.43;;;24.80;61.80;;;;;;5062604;28;20725;-67
2021/07/20 20:56:04;;;;;;;16.55;9.43;;;24.60;61.90;;;;;;5063721;28;20219;-69
2021/07/20 20:58:32;;;;;;;20.38;9.00;;;24.50;62.40;;;;;;5060911;28;20217;-66
2021/07/20 21:00:59;;;;;;;20.17;9.88;;;24.40;62.70;;;;;;5059975;28;20672;-67
2021/07/20 21:03:26;;;;;;;21.52;10.20;;;24.40;63.20;;;;;;5062113;28;20242;-68
2021/07/20 21:05:54;;;;;;;18.38;10.13;;;24.20;63.50;;;;;;5062692;28;20202;-67
2021/07/20 21:08:21;;;;;;;22.52;11.68;;;24.10;64.00;;;;;;5063612;28;20607;-65
2021/07/20 21:10:51;;;;;;;17.48;9.73;;;24.10;64.40;;;;;;5061218;28;20198;-67
2021/07/20 21:13:18;;;;;;;19.88;10.15;;;24.00;64.90;;;;;;5064775;28;20202;-68
2021/07/20 21:15:45;;;;;;;16.17;10.25;;;23.90;65.40;;;;;;5063704;28;20222;-67
2021/07/20 21:18:12;;;;;;;19.60;10.48;;;23.80;66.00;;;;;;5049122;28;20206;-68
2021/07/20 21:20:39;;;;;;;18.80;10.15;;;23.70;66.40;;;;;;5063228;28;20215;-67
2021/07/20 21:23:06;;;;;;;18.05;10.02;;;23.60;66.90;;;;;;5064920;28;20206;-67
2021/07/20 21:25:33;;;;;;;16.17;9.60;;;23.50;67.30;;;;;;5049077;28;20207;-67
2021/07/20 21:28:01;;;;;;;18.10;10.35;;;23.50;67.80;;;;;;5049299;28;20272;-67
2021/07/20 21:30:28;;;;;;;22.63;9.48;;;23.40;68.30;;;;;;5064221;28;20199;-67
2021/07/20 21:32:55;;;;;;;18.60;10.07;;;23.40;68.70;;;;;;5063802;28;20276;-67
2021/07/20 21:35:22;;;;;;;20.33;10.43;;;23.30;68.90;;;;;;5063394;28;20233;-66
2021/07/20 21:37:50;;;;;;;15.35;10.18;;;23.20;69.30;;;;;;5065431;28;20702;-66
2021/07/20 21:40:17;;;;;;;20.05;9.60;;;23.20;69.50;;;;;;5063586;28;20210;-67
2021/07/20 21:42:45;;;;;;;14.70;9.70;;;23.10;69.70;;;;;;5050602;28;20226;-66
2021/07/20 21:45:14;;;;;;;20.83;10.13;;;23.10;69.80;;;;;;5060725;28;20203;-68
2021/07/20 21:47:41;;;;;;;14.75;9.30;;;23.10;70.00;;;;;;5063521;28;20237;-66
2021/07/20 21:50:10;;;;;;;17.08;9.80;;;23.00;70.20;;;;;;5064660;28;20642;-66
2021/07/20 21:52:37;;;;;;;17.48;9.75;;;23.00;70.40;;;;;;5061965;28;20372;-68
2021/07/20 21:55:05;;;;;;;15.43;9.70;;;23.00;70.70;;;;;;5065150;28;20218;-67
2021/07/20 21:57:32;;;;;;;12.57;8.57;;;23.00;70.80;;;;;;5065396;28;20693;-68
2021/07/20 21:59:59;;;;;;;19.50;9.23;;;22.90;70.80;;;;;;5066759;28;20199;-67
2021/07/20 22:02:27;;;;;;;19.83;9.55;;;22.90;71.00;;;;;;5063246;28;20194;-67
2021/07/20 22:04:54;;;;;;;19.20;9.80;;;22.90;71.00;;;;;;5065796;28;20206;-68
2021/07/20 22:07:22;;;;;;;16.00;9.45;;;22.90;71.00;;;;;;5067010;28;20543;-67
2021/07/20 22:09:48;;;;;;;17.08;9.50;;;22.90;71.20;;;;;;5063220;28;20550;-68
2021/07/20 22:12:15;;;;;;;17.17;9.73;;;22.80;71.40;;;;;;5064901;28;20230;-67
2021/07/20 22:14:43;;;;;;;18.70;10.63;;;22.80;71.50;;;;;;5064578;28;20202;-67
2021/07/20 22:17:09;;;;;;;19.83;10.65;;;22.80;71.80;;;;;;5066307;28;20285;-67
2021/07/20 22:19:37;;;;;;;21.85;10.70;;;22.80;72.00;;;;;;5062872;28;20198;-66
2021/07/20 22:22:04;;;;;;;20.20;10.68;;;22.80;72.30;;;;;;5065537;28;20210;-66
2021/07/20 22:24:31;;;;;;;18.30;9.65;;;22.70;72.50;;;;;;5064331;28;20205;-67
2021/07/20 22:26:58;;;;;;;19.63;10.25;;;22.70;72.80;;;;;;5064884;28;20207;-68
2021/07/20 22:29:25;;;;;;;19.02;10.48;;;22.60;73.00;;;;;;5065148;28;20271;-67
2021/07/20 22:31:53;;;;;;;18.52;10.73;;;22.60;73.20;;;;;;5059402;28;20613;-67
2021/07/20 22:34:20;;;;;;;21.88;10.35;;;22.60;73.60;;;;;;5063216;28;20617;-67
2021/07/20 22:36:49;;;;;;;20.10;10.02;;;22.50;73.80;;;;;;5065044;28;20709;-68
2021/07/20 22:39:18;;;;;;;21.27;10.23;;;22.50;74.00;;;;;;5060614;28;20210;-67
2021/07/20 22:41:44;;;;;;;17.95;10.50;;;22.40;74.30;;;;;;5063002;28;20267;-67
2021/07/20 22:44:12;;;;;;;16.63;10.18;;;22.40;74.70;;;;;;5064318;28;20199;-67
2021/07/20 22:46:39;;;;;;;20.40;10.77;;;22.30;75.10;;;;;;5064662;28;20198;-67
2021/07/20 22:49:06;;;;;;;16.70;10.57;;;22.20;75.50;;;;;;5062970;28;20210;-67
2021/07/20 22:51:33;;;;;;;21.67;11.10;;;22.10;76.00;;;;;;5063753;28;20294;-68
2021/07/20 22:54:02;;;;;;;21.15;11.32;;;22.10;76.40;;;;;;5063656;28;20617;-67
2021/07/20 22:56:28;;;;;;;19.13;11.88;;;22.00;76.80;;;;;;5066466;28;20222;-68
2021/07/20 22:58:55;;;;;;;18.63;11.30;;;22.00;77.20;;;;;;5064163;28;20663;-67
2021/07/20 23:01:22;;;;;;;17.95;10.80;;;22.00;77.50;;;;;;5065135;28;20207;-67
2021/07/20 23:03:49;;;;;;;23.33;11.27;;;21.90;77.90;;;;;;5064806;28;20264;-67
2021/07/20 23:06:16;;;;;;;20.33;11.75;;;21.90;78.20;;;;;;5047407;28;20206;-66
2021/07/20 23:08:43;;;;;;;19.02;11.23;;;21.90;78.60;;;;;;5064191;28;20655;-66
2021/07/20 23:11:11;;;;;;;19.88;11.25;;;21.80;79.00;;;;;;5061843;28;20612;-67
2021/07/20 23:13:38;;;;;;;20.77;10.98;;;21.70;79.30;;;;;;5048151;28;20691;-67
2021/07/20 23:16:05;;;;;;;23.30;11.70;;;21.70;79.50;;;;;;5063500;28;20292;-67
2021/07/20 23:18:33;;;;;;;20.73;11.18;;;21.60;79.70;;;;;;5062649;28;20214;-67
2021/07/20 23:21:02;;;;;;;23.85;11.50;;;21.60;80.00;;;;;;5063371;28;20630;-67
2021/07/20 23:23:29;;;;;;;23.60;11.18;;;21.50;80.20;;;;;;5067871;28;20203;-67
2021/07/20 23:25:56;;;;;;;19.75;11.50;;;21.50;80.40;;;;;;5069716;28;20344;-67
2021/07/20 23:28:27;;;;;;;19.92;11.60;;;21.50;80.70;;;;;;5066902;28;20231;-68
2021/07/20 23:30:54;;;;;;;20.42;11.13;;;21.50;80.90;;;;;;5067035;28;20202;-68
2021/07/20 23:33:21;;;;;;;18.65;11.07;;;21.40;81.10;;;;;;5066536;28;20195;-68
2021/07/20 23:35:47;;;;;;;17.83;10.65;;;21.40;81.30;;;;;;5066485;28;20714;-67
2021/07/20 23:38:14;;;;;;;19.25;10.90;;;21.40;81.60;;;;;;5069439;28;20213;-68
2021/07/20 23:40:44;;;;;;;22.52;10.57;;;21.30;81.80;;;;;;5048460;28;20207;-67
2021/07/20 23:43:13;;;;;;;18.48;10.88;;;21.30;82.40;;;;;;5067434;28;20256;-67
2021/07/20 23:45:41;;;;;;;21.02;11.70;;;21.20;83.40;;;;;;5049636;28;20269;-67
2021/07/20 23:48:08;;;;;;;21.35;11.10;;;21.20;82.90;;;;;;5067475;28;20619;-67
2021/07/20 23:50:38;;;;;;;18.90;11.07;;;21.20;83.20;;;;;;5064047;28;20207;-67
2021/07/20 23:53:05;;;;;;;20.92;10.65;;;21.20;83.50;;;;;;5069647;28;20580;-68
2021/07/20 23:55:32;;;;;;;21.05;11.82;;;21.10;83.80;;;;;;5067404;28;20214;-66
2021/07/20 23:57:59;;;;;;;20.70;11.65;;;21.10;84.30;;;;;;5068709;28;20651;-68
